Main page
METAR-TAF:

METAR-TAF

Airports :

Zumbi dos Palmares International Airport

Maceió, Alagoas, Brazil

latitude: 09-31S, longitude: 035-47W, elevation: 117 m

Current weather observation

The report was made 57 minutes ago, at 01:00 UTC
Wind 4 kt from the East/Northeast
Temperature 24°C
Humidity 94%
Pressure 1015 hPa
Visibility 10 km or more
Scattered clouds at a height of 2000 ft

METAR: SBMO 180100Z 07004KT 9999 SCT020 24/23 Q1015

Time: 22:57 (01:57 UTC)

Forecast

The report was made 3 hours and 57 minutes ago, at 22:00 UTC
Forecast valid from 18 at 00 UTC to 18 at 24 UTC
Wind 5 kt from the Northeast
Visibility: 9000 m
Scattered clouds at a height of 1800 ft
Becoming
from 18 at 12 UTC to 18 at 14 UTC
Wind 14 kt from the East
Becoming
from 18 at 21 UTC to 18 at 23 UTC
Wind 7 kt from the East

TAF: SBMO 172200Z 1800/1824 05005KT 9000 SCT018 TN23/1803Z TX31/1815Z BECMG 1812/1814 09014KT BECMG 1821/1823 08007KT RMK PEU

Weather observations and forecasts of more than 4000 airports (METAR and TAF reports).

The available stations are represented by yellow and red dots on the map.

Hover mouse over dot to see the name of the station.

Then click to see weather observations and forecasts.

To change the map : click on the green buttons with a black cross to zoom in, on the green button with a dash to zoom out, or on the green arrows for adjacent maps.


METAR-TAF: